DCA weather

Ronald Reagan Washington National Airport
Washington, District of Columbia, United States

Public forecast

Using degrees Fahrenheit for public forecast. Weather courtesy of forecast.io.

Current aviation weather report (METAR) for Ronald Reagan Washington National Airport

Retrieved 2020/04/03 18:52 UTC (50 minutes ago):

KDCA 031852Z 32017G26KT 10SM SCT065 SCT250 18/01 A2978 RMK AO2 PK WND 36029/1835 SLP084 T01830011

Aviation forecast (TAF) for Ronald Reagan Washington National Airport

Retrieved 2020/04/03 18:36 UTC (1 hour ago):

TAF KDCA 031734Z 0318/0424 32024G34KT P6SM SKC FM032300 35013G20KT P6SM SCT050 FM041000 35007KT P6SM BKN050 FM042000 VRB03KT P6SM SCT045 FM042200 VRB03KT P6SM BKN050